No particular awareness of the weather is required.    There are no Weather-warnings


Meteo18 Weather Cam more information Meteo18 Weather Cam


Thunder radar more information blitzortung!


Rain radar more information rain snow radar


Visit our other weather sites:

Template documentation
and downloads

And another site



Weather Underground History page Text

Daily Summary for March 14, 2017 Units:  English    Metric   Both
« Previous Day
Next Day »
Daily Weekly Monthly Yearly Custom
  High: Low: Average:
Temperature: 60.3 °F 43.2 °F 50.2 °F
Dew Point: 48.4 °F 39.6 °F 43.5 °F
Humidity: 94 % 53 % 79 %
Wind Speed: 10 mph 0 mph 2.2 mph
Wind Gust: 13 mph - -
Wind:- - SW
Pressure: 30.6 in 30.5 in -
Precipitation: 0 in    
Historical Graphs
 
 
Tabular Data for March 14, 2017
Time Temperature Dew Point Pressure Wind Wind Speed Wind Gust Humidity Rainfall Rate (Hourly)
00:02 48 °F 44.4 °F 30.5 in NNW 1 mph 6 mph 87 % 0 in
00:07 48 °F 44.4 °F 30.5 in NNE 3 mph 6 mph 87 % 0 in
00:12 47.8 °F 44.2 °F 30.5 in Calm   6 mph 87 % 0 in
00:17 47.8 °F 44.2 °F 30.5 in NNW 1 mph 6 mph 87 % 0 in
00:22 47.8 °F 44.2 °F 30.5 in NNW 1 mph 7 mph 87 % 0 in
00:27 47.8 °F 44.2 °F 30.5 in North 2 mph 7 mph 87 % 0 in
00:32 47.7 °F 44.1 °F 30.5 in Calm   5 mph 87 % 0 in
00:37 47.7 °F 44.1 °F 30.5 in NNE 3 mph 7 mph 87 % 0 in
00:42 47.7 °F 44.1 °F 30.5 in NNW 2 mph 7 mph 87 % 0 in
00:52 47.7 °F 44.1 °F 30.5 in NNW 4 mph 7 mph 87 % 0 in
00:57 47.7 °F 44.1 °F 30.5 in NNW 4 mph 8 mph 87 % 0 in
01:02 47.5 °F 43.9 °F 30.5 in NNW 4 mph 8 mph 87 % 0 in
01:07 47.3 °F 43.9 °F 30.5 in NNE 3 mph 8 mph 88 % 0 in
01:12 47.3 °F 43.9 °F 30.5 in NNE 2 mph 7 mph 88 % 0 in
01:17 47.1 °F 43.7 °F 30.5 in North 3 mph 7 mph 88 % 0 in
01:22 47.1 °F 43.7 °F 30.5 in NNW 1 mph 7 mph 88 % 0 in
01:32 47.1 °F 43.7 °F 30.5 in Calm   6 mph 88 % 0 in
01:42 46.8 °F 43.3 °F 30.5 in NNW 1 mph 2 mph 88 % 0 in
01:47 46.9 °F 43.5 °F 30.5 in NNW 1 mph 4 mph 88 % 0 in
01:52 46.9 °F 43.5 °F 30.5 in NNW 2 mph 4 mph 88 % 0 in
01:57 46.9 °F 43.5 °F 30.5 in NW 1 mph 4 mph 88 % 0 in
02:02 46.8 °F 43.3 °F 30.5 in NW 1 mph 3 mph 88 % 0 in
02:12 46.6 °F 43.2 °F 30.5 in NW 2 mph 3 mph 88 % 0 in
02:17 46.4 °F 43 °F 30.5 in NNW 1 mph 3 mph 88 % 0 in
02:22 46.2 °F 43.2 °F 30.5 in Calm   3 mph 89 % 0 in
02:27 46.2 °F 43.2 °F 30.5 in NNW 2 mph 4 mph 89 % 0 in
02:32 46.2 °F 43.2 °F 30.5 in Calm   4 mph 89 % 0 in
02:37 46 °F 43 °F 30.5 in North 2 mph 3 mph 89 % 0 in
02:42 46 °F 43 °F 30.5 in NNE 3 mph 4 mph 89 % 0 in
02:47 46 °F 43 °F 30.5 in North 2 mph 4 mph 89 % 0 in
02:52 46 °F 43.3 °F 30.5 in NNW 3 mph 4 mph 90 % 0 in
02:57 46 °F 43 °F 30.5 in NNE 3 mph 5 mph 89 % 0 in
03:02 46 °F 43 °F 30.5 in North 2 mph 5 mph 89 % 0 in
03:07 46 °F 43 °F 30.5 in NNE 2 mph 5 mph 89 % 0 in
03:12 45.7 °F 42.6 °F 30.5 in NNE 2 mph 5 mph 89 % 0 in
03:17 45.9 °F 43.2 °F 30.5 in North 1 mph 5 mph 90 % 0 in
03:22 46 °F 43.3 °F 30.5 in North 1 mph 5 mph 90 % 0 in
03:32 46.4 °F 43 °F 30.5 in NNW 2 mph 6 mph 88 % 0 in
03:42 46.6 °F 43.2 °F 30.5 in NNW 2 mph 5 mph 88 % 0 in
03:47 46.6 °F 43.2 °F 30.5 in NNW 1 mph 5 mph 88 % 0 in
03:57 46.4 °F 43 °F 30.5 in North 4 mph 5 mph 88 % 0 in
04:02 46.4 °F 43 °F 30.5 in North 3 mph 7 mph 88 % 0 in
04:12 46 °F 42.6 °F 30.5 in NNW 2 mph 7 mph 88 % 0 in
04:17 45.9 °F 42.4 °F 30.5 in NNW 2 mph 6 mph 88 % 0 in
04:22 45.7 °F 42.3 °F 30.5 in NW 4 mph 6 mph 88 % 0 in
04:27 45.9 °F 42.8 °F 30.5 in NNW 5 mph 6 mph 89 % 0 in
04:32 45.9 °F 42.8 °F 30.5 in North 3 mph 6 mph 89 % 0 in
04:37 45.7 °F 42.3 °F 30.5 in NW 3 mph 6 mph 88 % 0 in
04:42 45.5 °F 42.4 °F 30.5 in NW 2 mph 5 mph 89 % 0 in
04:52 45.1 °F 42.1 °F 30.5 in NNW 3 mph 5 mph 89 % 0 in
04:57 45 °F 41.9 °F 30.5 in NW 2 mph 5 mph 89 % 0 in
05:02 45 °F 42.3 °F 30.5 in NW 1 mph 4 mph 90 % 0 in
05:12 44.8 °F 42.1 °F 30.5 in NNW 2 mph 4 mph 90 % 0 in
05:17 44.8 °F 42.1 °F 30.5 in NW 3 mph 5 mph 90 % 0 in
05:22 44.8 °F 42.1 °F 30.5 in NW 1 mph 5 mph 90 % 0 in
05:32 45 °F 42.3 °F 30.5 in North 1 mph 4 mph 90 % 0 in
05:37 44.8 °F 42.1 °F 30.5 in NNW 2 mph 4 mph 90 % 0 in
05:42 44.8 °F 42.1 °F 30.5 in NNW 1 mph 6 mph 90 % 0 in
05:47 44.4 °F 41.9 °F 30.5 in NNW 2 mph 6 mph 91 % 0 in
05:52 44.4 °F 41.9 °F 30.5 in NNW 1 mph 6 mph 91 % 0 in
05:57 44.4 °F 41.9 °F 30.5 in North 3 mph 3 mph 91 % 0 in
06:02 44.4 °F 41.9 °F 30.5 in NNW 1 mph 4 mph 91 % 0 in
06:12 43.9 °F 41.2 °F 30.5 in Calm   4 mph 90 % 0 in
06:17 43.3 °F 40.8 °F 30.5 in North 2 mph 3 mph 91 % 0 in
06:22 43.2 °F 40.6 °F 30.5 in NNE 1 mph 3 mph 91 % 0 in
06:32 43.3 °F 41.5 °F 30.5 in NNE 2 mph 2 mph 93 % 0 in
06:37 43.5 °F 41.7 °F 30.5 in NNW 2 mph 4 mph 93 % 0 in
06:42 43.5 °F 41.7 °F 30.5 in NNE 2 mph 4 mph 93 % 0 in
06:52 43.9 °F 41.7 °F 30.5 in Calm   5 mph 92 % 0 in
07:02 43.9 °F 41.9 °F 30.5 in NNE 3 mph 6 mph 93 % 0 in
07:12 44.1 °F 41.9 °F 30.5 in NNE 2 mph 5 mph 92 % 0 in
07:17 44.2 °F 42.1 °F 30.5 in NE 3 mph 5 mph 92 % 0 in
07:22 44.4 °F 42.3 °F 30.5 in NNW 3 mph 5 mph 92 % 0 in
07:32 44.6 °F 42.4 °F 30.5 in NNE 2 mph 8 mph 92 % 0 in
07:37 44.6 °F 42.4 °F 30.5 in ENE 2 mph 8 mph 92 % 0 in
07:42 44.8 °F 42.6 °F 30.5 in NNE 3 mph 8 mph 92 % 0 in
07:47 44.8 °F 42.6 °F 30.5 in NE 1 mph 5 mph 92 % 0 in
07:52 44.8 °F 42.6 °F 30.5 in NNW 3 mph 5 mph 92 % 0 in
07:57 45 °F 43 °F 30.5 in NNW 2 mph 8 mph 93 % 0 in
08:02 44.8 °F 42.8 °F 30.5 in NNE 2 mph 8 mph 93 % 0 in
08:07 44.8 °F 42.8 °F 30.5 in NNE 5 mph 6 mph 93 % 0 in
08:12 44.8 °F 42.8 °F 30.5 in NNE 4 mph 6 mph 93 % 0 in
08:17 44.8 °F 42.8 °F 30.6 in North 3 mph 11 mph 93 % 0 in
08:22 45 °F 43 °F 30.6 in NE 4 mph 11 mph 93 % 0 in
08:27 45 °F 43 °F 30.6 in NNW 4 mph 9 mph 93 % 0 in
08:32 44.8 °F 42.8 °F 30.6 in North 3 mph 9 mph 93 % 0 in
08:42 45 °F 43 °F 30.6 in NE 1 mph 11 mph 93 % 0 in
08:52 45.1 °F 43.2 °F 30.6 in NNE 10 mph 11 mph 93 % 0 in
08:57 45 °F 43 °F 30.6 in NE 6 mph 11 mph 93 % 0 in
09:02 44.8 °F 42.8 °F 30.6 in NNE 5 mph 11 mph 93 % 0 in
09:12 44.8 °F 43.2 °F 30.6 in North 4 mph 13 mph 94 % 0 in
09:17 44.8 °F 43.2 °F 30.6 in North 1 mph 13 mph 94 % 0 in
09:22 45 °F 43.3 °F 30.6 in NNW 3 mph 11 mph 94 % 0 in
09:32 45.1 °F 43.5 °F 30.6 in NE 3 mph 7 mph 94 % 0 in
09:42 45.1 °F 43.2 °F 30.6 in NE 7 mph 10 mph 93 % 0 in
09:47 45.3 °F 43.3 °F 30.6 in NNE 6 mph 11 mph 93 % 0 in
09:52 45.5 °F 43.5 °F 30.6 in NNE 2 mph 11 mph 93 % 0 in
09:57 45.5 °F 43.5 °F 30.6 in NNE 6 mph 11 mph 93 % 0 in
10:02 45.7 °F 43.7 °F 30.6 in NNW 2 mph 9 mph 93 % 0 in
10:12 45.9 °F 43.9 °F 30.6 in North 5 mph 8 mph 93 % 0 in
10:17 46 °F 44.1 °F 30.6 in NNE 9 mph 9 mph 93 % 0 in
10:22 46.2 °F 44.2 °F 30.6 in NNW 3 mph 8 mph 93 % 0 in
10:32 46.2 °F 44.2 °F 30.6 in NE 4 mph 9 mph 93 % 0 in
10:37 46.2 °F 44.1 °F 30.6 in NNE 3 mph 9 mph 92 % 0 in
10:42 46.8 °F 44.8 °F 30.6 in North 7 mph 10 mph 93 % 0 in
10:47 46.8 °F 44.8 °F 30.6 in NNW 4 mph 10 mph 93 % 0 in
10:52 46.8 °F 44.6 °F 30.6 in NNW 3 mph 10 mph 92 % 0 in
10:57 46.9 °F 44.8 °F 30.6 in West 1 mph 8 mph 92 % 0 in
11:02 47.3 °F 45.1 °F 30.6 in NNW 2 mph 8 mph 92 % 0 in
11:12 48.2 °F 45.7 °F 30.6 in NW 2 mph 8 mph 91 % 0 in
11:17 48.7 °F 45.9 °F 30.6 in NNE 1 mph 8 mph 90 % 0 in
11:22 49.1 °F 45.7 °F 30.6 in NNW 2 mph 8 mph 88 % 0 in
11:27 49.3 °F 45.9 °F 30.6 in NNW 3 mph 10 mph 88 % 0 in
11:32 49.5 °F 46.4 °F 30.6 in NE 10 mph 10 mph 89 % 0 in
11:37 49.5 °F 46.4 °F 30.6 in NE 1 mph 10 mph 89 % 0 in
11:42 50 °F 46.6 °F 30.6 in NNE 2 mph 11 mph 88 % 0 in
11:47 50.5 °F 46.8 °F 30.6 in NNE 4 mph 11 mph 87 % 0 in
11:57 50.7 °F 46.8 °F 30.6 in East 2 mph 9 mph 86 % 0 in
12:02 51.4 °F 47.5 °F 30.6 in Calm   7 mph 86 % 0 in
12:07 51.4 °F 47.1 °F 30.6 in NE 2 mph 7 mph 85 % 0 in
12:12 52.2 °F 47.5 °F 30.6 in ENE 2 mph 7 mph 84 % 0 in
12:17 52.2 °F 47.1 °F 30.6 in East 3 mph 7 mph 83 % 0 in
12:22 52.2 °F 47.5 °F 30.6 in NE 4 mph 7 mph 84 % 0 in
12:32 53.1 °F 48 °F 30.6 in NE 4 mph 7 mph 83 % 0 in
12:42 53.6 °F 47.8 °F 30.6 in NNE 3 mph 7 mph 81 % 0 in
12:52 53.8 °F 48 °F 30.6 in ENE 4 mph 9 mph 81 % 0 in
12:57 54.1 °F 48 °F 30.6 in North 2 mph 9 mph 80 % 0 in
13:02 54.1 °F 48 °F 30.6 in Calm   11 mph 80 % 0 in
13:07 54.5 °F 47.1 °F 30.6 in NNE 2 mph 11 mph 76 % 0 in
13:12 54.7 °F 48.4 °F 30.6 in NNW 3 mph 11 mph 79 % 0 in
13:17 55.2 °F 47.8 °F 30.6 in NNE 3 mph 10 mph 76 % 0 in
13:22 55.6 °F 47.1 °F 30.6 in Calm   10 mph 73 % 0 in
13:27 55.6 °F 47.1 °F 30.6 in WNW 1 mph 7 mph 73 % 0 in
13:32 55.9 °F 47.1 °F 30.6 in WNW 1 mph 7 mph 72 % 0 in
13:37 56.1 °F 47.7 °F 30.6 in North 3 mph 7 mph 73 % 0 in
13:42 56.1 °F 47.7 °F 30.6 in Calm   8 mph 73 % 0 in
13:47 56.5 °F 47.1 °F 30.6 in NNE 8 mph 8 mph 71 % 0 in
13:57 57.2 °F 47.1 °F 30.6 in Calm   10 mph 69 % 0 in
14:02 57.9 °F 48.2 °F 30.6 in North 3 mph 10 mph 70 % 0 in
14:07 58.1 °F 48.4 °F 30.5 in NNE 2 mph 5 mph 70 % 0 in
14:12 57.7 °F 46.9 °F 30.5 in NNW 7 mph 7 mph 67 % 0 in
14:17 57.7 °F 46.4 °F 30.5 in NW 1 mph 7 mph 66 % 0 in
14:27 57.9 °F 46.9 °F 30.5 in NNW 3 mph 7 mph 67 % 0 in
14:32 58.3 °F 45.7 °F 30.5 in NW 5 mph 7 mph 63 % 0 in
14:37 58.3 °F 46.2 °F 30.5 in NE 2 mph 7 mph 64 % 0 in
14:42 58.5 °F 46.4 °F 30.5 in Calm   7 mph 64 % 0 in
14:47 58.8 °F 46.2 °F 30.5 in NNE 1 mph 6 mph 63 % 0 in
14:52 58.6 °F 46.6 °F 30.5 in West 3 mph 7 mph 64 % 0 in
14:57 58.6 °F 45.7 °F 30.5 in WNW 1 mph 7 mph 62 % 0 in
15:02 58.3 °F 45.7 °F 30.5 in Calm   7 mph 63 % 0 in
15:07 58.3 °F 45.3 °F 30.5 in NE 6 mph 7 mph 62 % 0 in
15:17 58.5 °F 45.1 °F 30.5 in NE 2 mph 8 mph 61 % 0 in
15:22 58.5 °F 44.2 °F 30.5 in ENE 3 mph 8 mph 59 % 0 in
15:27 58.6 °F 44.8 °F 30.5 in WNW 1 mph 8 mph 60 % 0 in
15:37 59.4 °F 43.7 °F 30.5 in NW 2 mph 6 mph 56 % 0 in
15:42 59.2 °F 43.9 °F 30.5 in NW 1 mph 7 mph 57 % 0 in
15:47 58.8 °F 43.7 °F 30.5 in East 2 mph 8 mph 57 % 0 in
15:52 59 °F 41.9 °F 30.5 in NW 3 mph 8 mph 53 % 0 in
15:57 59.2 °F 42.6 °F 30.5 in North 5 mph 8 mph 54 % 0 in
16:02 59 °F 41.9 °F 30.5 in NNE 2 mph 6 mph 53 % 0 in
16:07 59.4 °F 43.2 °F 30.5 in NNW 1 mph 6 mph 55 % 0 in
16:12 59.5 °F 43.3 °F 30.5 in WNW 2 mph 6 mph 55 % 0 in
16:17 60.1 °F 43.3 °F 30.5 in Calm   5 mph 54 % 0 in
16:22 60.3 °F 43.5 °F 30.5 in NW 4 mph 5 mph 54 % 0 in
16:27 59.7 °F 43.5 °F 30.5 in North 1 mph 6 mph 55 % 0 in
16:32 59.5 °F 43.3 °F 30.5 in NE 8 mph 8 mph 55 % 0 in
16:37 59.5 °F 43.3 °F 30.5 in North 5 mph 8 mph 55 % 0 in
16:42 59.5 °F 43.3 °F 30.5 in NNW 3 mph 8 mph 55 % 0 in
16:47 59.5 °F 42.8 °F 30.5 in Calm   8 mph 54 % 0 in
16:52 59.7 °F 44.1 °F 30.5 in NNE 5 mph 8 mph 56 % 0 in
16:57 59.7 °F 44.4 °F 30.5 in NNW 3 mph 9 mph 57 % 0 in
17:02 59.4 °F 43.7 °F 30.5 in NW 1 mph 9 mph 56 % 0 in
17:07 59.2 °F 43.5 °F 30.5 in NNE 5 mph 9 mph 56 % 0 in
17:12 59.2 °F 44.4 °F 30.5 in NNE 4 mph 8 mph 58 % 0 in
17:17 59 °F 43.3 °F 30.5 in North 3 mph 8 mph 56 % 0 in
17:22 59 °F 44.8 °F 30.5 in North 5 mph 8 mph 59 % 0 in
17:27 58.8 °F 43.7 °F 30.5 in NNE 7 mph 9 mph 57 % 0 in
17:32 58.6 °F 43.9 °F 30.5 in NNW 4 mph 9 mph 58 % 0 in
17:37 58.6 °F 43.9 °F 30.5 in NNE 5 mph 9 mph 58 % 0 in
17:42 58.5 °F 43.7 °F 30.5 in NNW 4 mph 10 mph 58 % 0 in
17:47 58.3 °F 43.5 °F 30.5 in NNW 3 mph 10 mph 58 % 0 in
17:52 58.3 °F 43.5 °F 30.5 in NW 3 mph 10 mph 58 % 0 in
17:57 57.9 °F 43.2 °F 30.5 in NNW 6 mph 8 mph 58 % 0 in
18:02 57.9 °F 43.2 °F 30.5 in NNW 2 mph 8 mph 58 % 0 in
18:07 57.9 °F 43.2 °F 30.5 in NNW 4 mph 8 mph 58 % 0 in
18:12 57.7 °F 43.5 °F 30.5 in North 3 mph 8 mph 59 % 0 in
18:17 57.6 °F 43.3 °F 30.5 in North 4 mph 8 mph 59 % 0 in
18:22 57.2 °F 43.5 °F 30.5 in NNW 1 mph 6 mph 60 % 0 in
18:32 56.5 °F 43.2 °F 30.5 in North 2 mph 6 mph 61 % 0 in
18:42 55.8 °F 42.4 °F 30.5 in North 2 mph 5 mph 61 % 0 in
18:47 55.6 °F 42.3 °F 30.5 in North 2 mph 5 mph 61 % 0 in
18:57 54.9 °F 42.4 °F 30.5 in NNW 1 mph 4 mph 63 % 0 in
19:02 54.7 °F 42.8 °F 30.5 in NW 1 mph 3 mph 64 % 0 in
19:07 54.7 °F 42.8 °F 30.5 in NNW 1 mph 3 mph 64 % 0 in
19:12 54.5 °F 42.6 °F 30.5 in NW 1 mph 3 mph 64 % 0 in
19:17 54.3 °F 42.8 °F 30.5 in NW 1 mph 3 mph 65 % 0 in
19:22 54.1 °F 42.6 °F 30.5 in NW 1 mph 3 mph 65 % 0 in
19:27 54 °F 42.8 °F 30.5 in NNW 1 mph 3 mph 66 % 0 in
19:37 53.4 °F 43.2 °F 30.5 in NNW 2 mph 3 mph 68 % 0 in
19:42 53.1 °F 43.2 °F 30.5 in NNW 1 mph 3 mph 69 % 0 in
19:47 52.7 °F 43.2 °F 30.5 in NNW 3 mph 3 mph 70 % 0 in
19:52 52.3 °F 43.2 °F 30.5 in NW 2 mph 3 mph 71 % 0 in
19:57 52 °F 43.2 °F 30.5 in Calm   3 mph 72 % 0 in
20:02 51.4 °F 43.2 °F 30.5 in Calm   3 mph 73 % 0 in
20:07 51.1 °F 42.8 °F 30.5 in Calm   2 mph 73 % 0 in
20:12 50.7 °F 42.8 °F 30.5 in NNW 1 mph 2 mph 74 % 0 in
20:17 50.4 °F 42.4 °F 30.5 in Calm   2 mph 74 % 0 in
20:22 50.2 °F 42.6 °F 30.5 in Calm   2 mph 75 % 0 in
20:27 50 °F 42.4 °F 30.5 in Calm   2 mph 75 % 0 in
20:32 49.8 °F 42.6 °F 30.5 in Calm   2 mph 76 % 0 in
20:42 49.5 °F 42.3 °F 30.5 in Calm   2 mph 76 % 0 in
20:47 49.3 °F 42.1 °F 30.5 in Calm   2 mph 76 % 0 in
20:52 49.3 °F 42.4 °F 30.5 in Calm   2 mph 77 % 0 in
20:57 48.9 °F 42.1 °F 30.5 in Calm   2 mph 77 % 0 in
21:02 48.9 °F 42.1 °F 30.5 in North 1 mph 3 mph 77 % 0 in
21:12 49.3 °F 42.1 °F 30.5 in North 2 mph 4 mph 76 % 0 in
21:17 49.3 °F 42.1 °F 30.5 in WNW 2 mph 4 mph 76 % 0 in
21:22 49.3 °F 42.1 °F 30.5 in NNW 2 mph 3 mph 76 % 0 in
21:27 49.3 °F 42.1 °F 30.5 in NNW 1 mph 3 mph 76 % 0 in
21:32 48.9 °F 42.1 °F 30.5 in North 1 mph 4 mph 77 % 0 in
21:37 48.7 °F 41.9 °F 30.5 in Calm   4 mph 77 % 0 in
21:42 48.4 °F 41.5 °F 30.5 in Calm   4 mph 77 % 0 in
21:47 48 °F 41.5 °F 30.5 in Calm   3 mph 78 % 0 in
21:52 47.8 °F 41.7 °F 30.5 in Calm   2 mph 79 % 0 in
21:57 47.7 °F 41.5 °F 30.5 in Calm   2 mph 79 % 0 in
22:02 47.7 °F 41.5 °F 30.5 in Calm   2 mph 79 % 0 in
22:07 47.5 °F 41.4 °F 30.5 in Calm   1 mph 79 % 0 in
22:12 47.1 °F 41 °F 30.5 in Calm   1 mph 79 % 0 in
22:17 46.6 °F 41 °F 30.5 in WNW 1 mph 2 mph 81 % 0 in
22:22 46.2 °F 40.6 °F 30.5 in West 2 mph 2 mph 81 % 0 in
22:27 46 °F 40.8 °F 30.5 in West 1 mph 2 mph 82 % 0 in
22:32 45.9 °F 40.3 °F 30.5 in WNW 1 mph 2 mph 81 % 0 in
22:37 45.9 °F 40.6 °F 30.5 in WNW 1 mph 2 mph 82 % 0 in
22:42 46.2 °F 40.5 °F 30.5 in WNW 1 mph 2 mph 80 % 0 in
22:47 46.6 °F 40.5 °F 30.5 in Calm   2 mph 79 % 0 in
22:57 47.1 °F 39.9 °F 30.5 in Calm   2 mph 76 % 0 in
23:02 47.1 °F 39.9 °F 30.5 in NW 3 mph 3 mph 76 % 0 in
23:07 47.1 °F 39.9 °F 30.5 in NW 2 mph 3 mph 76 % 0 in
23:12 47.1 °F 39.6 °F 30.5 in NNW 1 mph 3 mph 75 % 0 in
23:17 47.3 °F 39.7 °F 30.5 in NW 1 mph 3 mph 75 % 0 in
23:22 47.1 °F 39.6 °F 30.5 in NW 2 mph 3 mph 75 % 0 in
23:32 47.1 °F 39.6 °F 30.5 in NW 2 mph 3 mph 75 % 0 in
23:37 47.3 °F 40.1 °F 30.5 in NW 2 mph 4 mph 76 % 0 in
23:42 47.5 °F 40.3 °F 30.5 in NW 2 mph 4 mph 76 % 0 in
23:47 47.5 °F 40.3 °F 30.5 in NW 1 mph 4 mph 76 % 0 in
23:57 47.3 °F 40.8 °F 30.5 in North 1 mph 4 mph 78 % 0 in
Meteo18
Compliments of Weather Underground - 4 mb

Script developed by  Jim McMurry - jmcmurry@mwt.net Adapted for the template by  Wim van der Kuil - Leuven-Template.eu

You find our weather info also at:

European Weather Network

Weather Underground

Equipment we use:

Weather-station
Davis Vue

Weather-program
Meteohub

Weather-server
Raspberry PI 2 B+

Provider
1 and 1

Davis Vue

Meteohub

Raspberry PI 2 B+

1 and 1